sensor_id;sensor_type;location;lat;lon;timestamp;pressure;altitude;pressure_sealevel;temperature;humidity
15314;BME280;7757;52.626;4.746;2022-12-18T00:01:59;102550.88;;;14.88;58.64
15314;BME280;7757;52.626;4.746;2022-12-18T00:04:27;102517.94;;;14.70;57.69
15314;BME280;7757;52.626;4.746;2022-12-18T00:06:55;102564.00;;;14.83;57.49
15314;BME280;7757;52.626;4.746;2022-12-18T00:09:22;102549.38;;;14.78;58.28
15314;BME280;7757;52.626;4.746;2022-12-18T00:11:49;102562.50;;;14.81;58.54
15314;BME280;7757;52.626;4.746;2022-12-18T00:14:16;102569.91;;;14.87;58.52
15314;BME280;7757;52.626;4.746;2022-12-18T00:16:44;102576.28;;;14.86;57.60
15314;BME280;7757;52.626;4.746;2022-12-18T00:19:12;102547.56;;;14.70;58.32
15314;BME280;7757;52.626;4.746;2022-12-18T00:21:40;102563.16;;;14.83;57.52
15314;BME280;7757;52.626;4.746;2022-12-18T00:24:09;102534.91;;;14.71;58.42
15314;BME280;7757;52.626;4.746;2022-12-18T00:26:38;102566.72;;;14.83;58.65
15314;BME280;7757;52.626;4.746;2022-12-18T00:29:07;102576.63;;;14.83;58.28
15314;BME280;7757;52.626;4.746;2022-12-18T00:31:34;102564.53;;;14.79;58.68
15314;BME280;7757;52.626;4.746;2022-12-18T00:34:01;102547.22;;;14.65;57.90
15314;BME280;7757;52.626;4.746;2022-12-18T00:36:30;102567.72;;;14.74;58.02
15314;BME280;7757;52.626;4.746;2022-12-18T00:38:58;102569.59;;;14.82;58.13
15314;BME280;7757;52.626;4.746;2022-12-18T00:41:27;102561.31;;;14.83;57.75
15314;BME280;7757;52.626;4.746;2022-12-18T00:44:13;102548.53;;;14.77;57.80
15314;BME280;7757;52.626;4.746;2022-12-18T00:46:41;102544.03;;;14.70;58.06
15314;BME280;7757;52.626;4.746;2022-12-18T00:49:09;102560.31;;;14.76;57.88
15314;BME280;7757;52.626;4.746;2022-12-18T00:51:36;102552.41;;;14.75;57.80
15314;BME280;7757;52.626;4.746;2022-12-18T00:54:02;102559.81;;;14.81;57.27
15314;BME280;7757;52.626;4.746;2022-12-18T00:56:30;102546.84;;;14.76;57.47
15314;BME280;7757;52.626;4.746;2022-12-18T00:58:57;102559.31;;;14.77;57.76
15314;BME280;7757;52.626;4.746;2022-12-18T01:01:24;102554.44;;;14.73;58.50
15314;BME280;7757;52.626;4.746;2022-12-18T01:03:50;102562.53;;;14.73;57.75
15314;BME280;7757;52.626;4.746;2022-12-18T01:06:17;102561.19;;;14.69;57.17
15314;BME280;7757;52.626;4.746;2022-12-18T01:08:44;102564.72;;;14.69;58.28
15314;BME280;7757;52.626;4.746;2022-12-18T01:11:13;102554.09;;;14.68;57.98
15314;BME280;7757;52.626;4.746;2022-12-18T01:13:42;102550.59;;;14.67;57.75
15314;BME280;7757;52.626;4.746;2022-12-18T01:16:11;102566.22;;;14.72;57.74
15314;BME280;7757;52.626;4.746;2022-12-18T01:18:38;102571.94;;;14.69;58.35
15314;BME280;7757;52.626;4.746;2022-12-18T01:21:07;102558.50;;;14.61;57.37
15314;BME280;7757;52.626;4.746;2022-12-18T01:23:34;102570.13;;;14.61;58.05
15314;BME280;7757;52.626;4.746;2022-12-18T01:26:05;102558.31;;;14.62;58.19
15314;BME280;7757;52.626;4.746;2022-12-18T01:28:32;102579.88;;;14.70;58.11
15314;BME280;7757;52.626;4.746;2022-12-18T01:31:11;102583.06;;;14.66;57.10
15314;BME280;7757;52.626;4.746;2022-12-18T01:33:37;102573.63;;;14.62;57.54
15314;BME280;7757;52.626;4.746;2022-12-18T01:36:05;102581.19;;;14.74;56.97
15314;BME280;7757;52.626;4.746;2022-12-18T01:38:31;102578.50;;;14.74;57.64
15314;BME280;7757;52.626;4.746;2022-12-18T01:40:59;102577.84;;;14.72;58.11
15314;BME280;7757;52.626;4.746;2022-12-18T01:43:41;102577.84;;;14.72;57.42
15314;BME280;7757;52.626;4.746;2022-12-18T01:46:10;102592.31;;;14.71;57.29
15314;BME280;7757;52.626;4.746;2022-12-18T01:48:37;102592.16;;;14.73;58.05
15314;BME280;7757;52.626;4.746;2022-12-18T01:51:06;102589.97;;;14.68;57.90
15314;BME280;7757;52.626;4.746;2022-12-18T01:53:35;102599.06;;;14.75;57.09
15314;BME280;7757;52.626;4.746;2022-12-18T01:56:03;102600.25;;;14.73;57.60
15314;BME280;7757;52.626;4.746;2022-12-18T01:58:35;102609.97;;;14.74;57.80
15314;BME280;7757;52.626;4.746;2022-12-18T02:01:05;102603.94;;;14.72;58.00
15314;BME280;7757;52.626;4.746;2022-12-18T02:03:33;102607.28;;;14.74;56.78
15314;BME280;7757;52.626;4.746;2022-12-18T02:06:06;102575.16;;;14.56;57.60
15314;BME280;7757;52.626;4.746;2022-12-18T02:08:42;102588.81;;;14.55;57.51
15314;BME280;7757;52.626;4.746;2022-12-18T02:11:18;102616.75;;;14.70;57.19
15314;BME280;7757;52.626;4.746;2022-12-18T02:13:55;102621.94;;;14.71;58.27
15314;BME280;7757;52.626;4.746;2022-12-18T02:16:31;102609.00;;;14.67;57.42
15314;BME280;7757;52.626;4.746;2022-12-18T02:19:07;102614.91;;;14.70;57.89
15314;BME280;7757;52.626;4.746;2022-12-18T02:21:47;102603.59;;;14.75;57.19
15314;BME280;7757;52.626;4.746;2022-12-18T02:24:27;102605.13;;;14.69;57.63
15314;BME280;7757;52.626;4.746;2022-12-18T02:26:59;102585.09;;;14.64;58.06
15314;BME280;7757;52.626;4.746;2022-12-18T02:29:31;102593.19;;;14.64;57.67
15314;BME280;7757;52.626;4.746;2022-12-18T02:31:59;102587.94;;;14.62;57.85
15314;BME280;7757;52.626;4.746;2022-12-18T02:34:28;102588.13;;;14.61;57.16
15314;BME280;7757;52.626;4.746;2022-12-18T02:36:57;102581.38;;;14.65;57.83
15314;BME280;7757;52.626;4.746;2022-12-18T02:39:26;102572.97;;;14.60;57.63
15314;BME280;7757;52.626;4.746;2022-12-18T02:41:55;102569.25;;;14.52;57.52
15314;BME280;7757;52.626;4.746;2022-12-18T02:44:24;102582.75;;;14.61;57.39
15314;BME280;7757;52.626;4.746;2022-12-18T02:46:52;102576.50;;;14.60;56.64
15314;BME280;7757;52.626;4.746;2022-12-18T02:49:26;102569.78;;;14.56;57.72
15314;BME280;7757;52.626;4.746;2022-12-18T02:52:02;102575.66;;;14.60;57.30
15314;BME280;7757;52.626;4.746;2022-12-18T02:54:39;102548.78;;;14.43;57.75
15314;BME280;7757;52.626;4.746;2022-12-18T02:57:16;102564.38;;;14.56;58.05
15314;BME280;7757;52.626;4.746;2022-12-18T02:59:51;102574.16;;;14.57;57.18
15314;BME280;7757;52.626;4.746;2022-12-18T03:02:24;102571.63;;;14.56;57.88
15314;BME280;7757;52.626;4.746;2022-12-18T03:04:58;102579.53;;;14.57;57.60
15314;BME280;7757;52.626;4.746;2022-12-18T03:07:34;102567.75;;;14.50;57.72
15314;BME280;7757;52.626;4.746;2022-12-18T03:10:06;102561.53;;;14.58;56.92
15314;BME280;7757;52.626;4.746;2022-12-18T03:12:42;102562.38;;;14.58;57.16
15314;BME280;7757;52.626;4.746;2022-12-18T03:15:15;102556.16;;;14.58;56.88
15314;BME280;7757;52.626;4.746;2022-12-18T03:17:45;102560.16;;;14.62;56.55
15314;BME280;7757;52.626;4.746;2022-12-18T03:20:16;102540.16;;;14.56;57.35
15314;BME280;7757;52.626;4.746;2022-12-18T03:22:46;102550.44;;;14.61;57.27
15314;BME280;7757;52.626;4.746;2022-12-18T03:25:14;102535.28;;;14.51;57.43
15314;BME280;7757;52.626;4.746;2022-12-18T03:27:46;102553.28;;;14.59;57.30
15314;BME280;7757;52.626;4.746;2022-12-18T03:30:17;102541.00;;;14.57;57.00
15314;BME280;7757;52.626;4.746;2022-12-18T03:32:47;102550.94;;;14.64;56.80
15314;BME280;7757;52.626;4.746;2022-12-18T03:35:18;102546.56;;;14.63;57.41
15314;BME280;7757;52.626;4.746;2022-12-18T03:37:47;102546.03;;;14.60;57.10
15314;BME280;7757;52.626;4.746;2022-12-18T03:40:13;102560.34;;;14.60;56.83
15314;BME280;7757;52.626;4.746;2022-12-18T03:42:45;102552.09;;;14.62;57.67
15314;BME280;7757;52.626;4.746;2022-12-18T03:45:20;102548.25;;;14.64;57.84
15314;BME280;7757;52.626;4.746;2022-12-18T03:47:57;102550.25;;;14.62;56.91
15314;BME280;7757;52.626;4.746;2022-12-18T03:50:32;102549.41;;;14.62;57.44
15314;BME280;7757;52.626;4.746;2022-12-18T03:53:12;102538.50;;;14.55;56.47
15314;BME280;7757;52.626;4.746;2022-12-18T03:55:41;102535.09;;;14.53;56.82
15314;BME280;7757;52.626;4.746;2022-12-18T03:58:11;102531.06;;;14.57;56.92
15314;BME280;7757;52.626;4.746;2022-12-18T04:00:42;102530.41;;;14.63;56.15
15314;BME280;7757;52.626;4.746;2022-12-18T04:03:10;102521.81;;;14.60;57.10
15314;BME280;7757;52.626;4.746;2022-12-18T04:05:40;102530.22;;;14.65;56.74
15314;BME280;7757;52.626;4.746;2022-12-18T04:08:08;102526.53;;;14.58;56.98
15314;BME280;7757;52.626;4.746;2022-12-18T04:10:35;102516.25;;;14.53;56.89
15314;BME280;7757;52.626;4.746;2022-12-18T04:13:02;102527.38;;;14.58;56.98
15314;BME280;7757;52.626;4.746;2022-12-18T04:15:29;102522.81;;;14.59;56.48
15314;BME280;7757;52.626;4.746;2022-12-18T04:17:57;102511.88;;;14.60;55.86
15314;BME280;7757;52.626;4.746;2022-12-18T04:20:24;102511.22;;;14.50;56.12
15314;BME280;7757;52.626;4.746;2022-12-18T04:22:50;102518.09;;;14.52;56.41
15314;BME280;7757;52.626;4.746;2022-12-18T04:25:17;102527.72;;;14.55;55.65
15314;BME280;7757;52.626;4.746;2022-12-18T04:27:44;102524.34;;;14.53;56.12
15314;BME280;7757;52.626;4.746;2022-12-18T04:30:13;102533.09;;;14.55;56.71
15314;BME280;7757;52.626;4.746;2022-12-18T04:32:39;102541.66;;;14.59;55.77
15314;BME280;7757;52.626;4.746;2022-12-18T04:35:08;102547.75;;;14.61;56.67
15314;BME280;7757;52.626;4.746;2022-12-18T04:37:36;102548.56;;;14.53;56.49
15314;BME280;7757;52.626;4.746;2022-12-18T04:40:04;102540.69;;;14.51;56.46
15314;BME280;7757;52.626;4.746;2022-12-18T04:42:31;102563.19;;;14.59;56.45
15314;BME280;7757;52.626;4.746;2022-12-18T04:44:58;102558.00;;;14.57;56.33
15314;BME280;7757;52.626;4.746;2022-12-18T04:47:25;102565.75;;;14.52;56.28
15314;BME280;7757;52.626;4.746;2022-12-18T04:49:52;102561.03;;;14.54;55.77
15314;BME280;7757;52.626;4.746;2022-12-18T04:52:20;102561.72;;;14.48;56.20
15314;BME280;7757;52.626;4.746;2022-12-18T04:54:46;102574.16;;;14.49;55.95
15314;BME280;7757;52.626;4.746;2022-12-18T04:57:13;102573.84;;;14.52;57.06
15314;BME280;7757;52.626;4.746;2022-12-18T04:59:40;102578.38;;;14.51;56.33
15314;BME280;7757;52.626;4.746;2022-12-18T05:02:07;102581.41;;;14.48;56.42
15314;BME280;7757;52.626;4.746;2022-12-18T05:04:34;102578.19;;;14.45;56.41
15314;BME280;7757;52.626;4.746;2022-12-18T05:07:01;102567.94;;;14.40;56.09
15314;BME280;7757;52.626;4.746;2022-12-18T05:09:29;102568.44;;;14.44;55.60
15314;BME280;7757;52.626;4.746;2022-12-18T05:11:56;102570.97;;;14.37;56.28
15314;BME280;7757;52.626;4.746;2022-12-18T05:14:23;102574.16;;;14.33;56.50
15314;BME280;7757;52.626;4.746;2022-12-18T05:16:49;102586.94;;;14.39;57.05
15314;BME280;7757;52.626;4.746;2022-12-18T05:19:16;102584.94;;;14.33;56.35
15314;BME280;7757;52.626;4.746;2022-12-18T05:21:43;102558.84;;;14.25;56.78
15314;BME280;7757;52.626;4.746;2022-12-18T05:24:10;102583.38;;;14.30;56.25
15314;BME280;7757;52.626;4.746;2022-12-18T05:26:38;102590.31;;;14.33;57.23
15314;BME280;7757;52.626;4.746;2022-12-18T05:29:05;102574.47;;;14.30;55.75
15314;BME280;7757;52.626;4.746;2022-12-18T05:31:31;102568.41;;;14.28;56.99
15314;BME280;7757;52.626;4.746;2022-12-18T05:33:58;102567.56;;;14.27;56.41
15314;BME280;7757;52.626;4.746;2022-12-18T05:36:25;102566.09;;;14.33;56.22
15314;BME280;7757;52.626;4.746;2022-12-18T05:38:51;102567.94;;;14.32;57.25
15314;BME280;7757;52.626;4.746;2022-12-18T05:41:18;102557.97;;;14.25;57.34
15314;BME280;7757;52.626;4.746;2022-12-18T05:43:46;102562.84;;;14.29;56.16
15314;BME280;7757;52.626;4.746;2022-12-18T05:46:15;102570.59;;;14.24;56.87
15314;BME280;7757;52.626;4.746;2022-12-18T05:48:43;102558.13;;;14.23;56.31
15314;BME280;7757;52.626;4.746;2022-12-18T05:51:12;102563.19;;;14.26;55.96
15314;BME280;7757;52.626;4.746;2022-12-18T05:53:40;102538.63;;;14.13;56.57
15314;BME280;7757;52.626;4.746;2022-12-18T05:56:09;102554.28;;;14.18;56.81
15314;BME280;7757;52.626;4.746;2022-12-18T05:58:36;102541.50;;;14.20;56.91
15314;BME280;7757;52.626;4.746;2022-12-18T06:01:10;102536.63;;;14.15;56.54
15314;BME280;7757;52.626;4.746;2022-12-18T06:03:37;102554.44;;;14.16;57.01
15314;BME280;7757;52.626;4.746;2022-12-18T06:06:12;102538.31;;;14.08;56.68
15314;BME280;7757;52.626;4.746;2022-12-18T06:08:39;102544.34;;;14.10;57.38
15314;BME280;7757;52.626;4.746;2022-12-18T06:11:06;102549.41;;;14.13;56.59
15314;BME280;7757;52.626;4.746;2022-12-18T06:13:33;102523.16;;;13.99;57.20
15314;BME280;7757;52.626;4.746;2022-12-18T06:16:02;102529.41;;;14.08;55.43
15314;BME280;7757;52.626;4.746;2022-12-18T06:18:30;102548.38;;;14.14;56.00
15314;BME280;7757;52.626;4.746;2022-12-18T06:20:57;102542.66;;;14.09;56.54
15314;BME280;7757;52.626;4.746;2022-12-18T06:23:25;102531.91;;;14.09;56.85
15314;BME280;7757;52.626;4.746;2022-12-18T06:25:52;102542.31;;;14.12;56.95
15314;BME280;7757;52.626;4.746;2022-12-18T06:28:19;102517.47;;;14.02;56.39
15314;BME280;7757;52.626;4.746;2022-12-18T06:30:46;102515.56;;;14.03;55.98
15314;BME280;7757;52.626;4.746;2022-12-18T06:33:14;102523.81;;;14.09;56.30
15314;BME280;7757;52.626;4.746;2022-12-18T06:35:42;102509.53;;;14.01;57.12
15314;BME280;7757;52.626;4.746;2022-12-18T06:38:09;102513.25;;;14.08;57.29
15314;BME280;7757;52.626;4.746;2022-12-18T06:40:36;102512.41;;;14.07;56.92
15314;BME280;7757;52.626;4.746;2022-12-18T06:43:03;102488.00;;;14.01;56.54
15314;BME280;7757;52.626;4.746;2022-12-18T06:45:30;102492.38;;;14.10;57.04
15314;BME280;7757;52.626;4.746;2022-12-18T06:47:56;102491.22;;;14.04;56.43
15314;BME280;7757;52.626;4.746;2022-12-18T06:50:23;102487.19;;;14.08;56.58
15314;BME280;7757;52.626;4.746;2022-12-18T06:52:51;102486.50;;;14.06;56.79
15314;BME280;7757;52.626;4.746;2022-12-18T06:55:18;102479.94;;;14.01;57.13
15314;BME280;7757;52.626;4.746;2022-12-18T06:57:45;102460.63;;;13.89;56.33
15314;BME280;7757;52.626;4.746;2022-12-18T07:00:12;102481.63;;;14.02;56.58
15314;BME280;7757;52.626;4.746;2022-12-18T07:02:39;102478.59;;;14.05;57.05
15314;BME280;7757;52.626;4.746;2022-12-18T07:05:06;102471.38;;;14.05;56.46
15314;BME280;7757;52.626;4.746;2022-12-18T07:07:33;102478.44;;;14.06;57.19
15314;BME280;7757;52.626;4.746;2022-12-18T07:10:02;102478.09;;;14.01;57.44
15314;BME280;7757;52.626;4.746;2022-12-18T07:12:31;102477.25;;;14.01;56.18
15314;BME280;7757;52.626;4.746;2022-12-18T07:14:58;102478.75;;;14.03;56.68
15314;BME280;7757;52.626;4.746;2022-12-18T07:17:25;102487.34;;;14.07;56.65
15314;BME280;7757;52.626;4.746;2022-12-18T07:19:51;102480.78;;;14.01;57.33
15314;BME280;7757;52.626;4.746;2022-12-18T07:22:18;102472.22;;;13.97;56.92
15314;BME280;7757;52.626;4.746;2022-12-18T07:24:45;102465.81;;;14.07;57.02
15314;BME280;7757;52.626;4.746;2022-12-18T07:27:20;102461.44;;;14.06;57.27
15314;BME280;7757;52.626;4.746;2022-12-18T07:29:47;102456.72;;;13.99;57.42
15314;BME280;7757;52.626;4.746;2022-12-18T07:32:13;102448.50;;;14.01;56.94
15314;BME280;7757;52.626;4.746;2022-12-18T07:34:40;102451.34;;;13.99;58.00
15314;BME280;7757;52.626;4.746;2022-12-18T07:37:07;102442.59;;;14.06;57.46
15314;BME280;7757;52.626;4.746;2022-12-18T07:39:33;102432.34;;;14.09;57.34
15314;BME280;7757;52.626;4.746;2022-12-18T07:42:00;102422.78;;;14.07;56.41
15314;BME280;7757;52.626;4.746;2022-12-18T07:44:46;102422.63;;;14.08;57.58
15314;BME280;7757;52.626;4.746;2022-12-18T07:47:13;102419.75;;;14.02;57.12
15314;BME280;7757;52.626;4.746;2022-12-18T07:49:39;102422.28;;;14.03;57.56
15314;BME280;7757;52.626;4.746;2022-12-18T07:52:06;102419.94;;;14.08;57.62
15314;BME280;7757;52.626;4.746;2022-12-18T07:54:34;102421.94;;;14.06;57.58
15314;BME280;7757;52.626;4.746;2022-12-18T07:57:01;102427.81;;;14.10;56.88
15314;BME280;7757;52.626;4.746;2022-12-18T07:59:28;102424.47;;;14.08;57.00
15314;BME280;7757;52.626;4.746;2022-12-18T08:01:56;102402.47;;;13.96;57.41
15314;BME280;7757;52.626;4.746;2022-12-18T08:04:22;102427.81;;;14.10;57.14
15314;BME280;7757;52.626;4.746;2022-12-18T08:06:49;102431.53;;;14.17;56.58
15314;BME280;7757;52.626;4.746;2022-12-18T08:09:16;102425.97;;;14.10;56.20
15314;BME280;7757;52.626;4.746;2022-12-18T08:11:43;102440.94;;;14.13;57.04
15314;BME280;7757;52.626;4.746;2022-12-18T08:14:10;102450.16;;;14.18;56.85
15314;BME280;7757;52.626;4.746;2022-12-18T08:16:36;102453.88;;;14.25;57.16
15314;BME280;7757;52.626;4.746;2022-12-18T08:19:05;102446.66;;;14.26;57.06
15314;BME280;7757;52.626;4.746;2022-12-18T08:21:31;102433.19;;;14.18;56.51
15314;BME280;7757;52.626;4.746;2022-12-18T08:24:00;102463.81;;;14.33;57.81
15314;BME280;7757;52.626;4.746;2022-12-18T08:26:29;102463.13;;;14.31;57.61
15314;BME280;7757;52.626;4.746;2022-12-18T08:28:58;102463.31;;;14.37;56.63
15314;BME280;7757;52.626;4.746;2022-12-18T08:31:26;102463.81;;;14.33;56.70
15314;BME280;7757;52.626;4.746;2022-12-18T08:33:54;102459.75;;;14.29;56.76
15314;BME280;7757;52.626;4.746;2022-12-18T08:36:22;102458.09;;;14.36;57.42
15314;BME280;7757;52.626;4.746;2022-12-18T08:38:49;102453.19;;;14.47;56.77
15314;BME280;7757;52.626;4.746;2022-12-18T08:41:17;102445.63;;;14.35;56.75
15314;BME280;7757;52.626;4.746;2022-12-18T08:43:44;102433.19;;;14.34;56.57
15314;BME280;7757;52.626;4.746;2022-12-18T08:46:35;102432.81;;;14.45;56.98
15314;BME280;7757;52.626;4.746;2022-12-18T08:49:02;102421.56;;;14.41;56.50
15314;BME280;7757;52.626;4.746;2022-12-18T08:51:31;102435.38;;;14.46;57.65
15314;BME280;7757;52.626;4.746;2022-12-18T08:53:58;102438.22;;;14.45;57.04
15314;BME280;7757;52.626;4.746;2022-12-18T08:56:25;102443.25;;;14.48;56.38
15314;BME280;7757;52.626;4.746;2022-12-18T08:58:52;102437.03;;;14.47;56.48
15314;BME280;7757;52.626;4.746;2022-12-18T09:01:19;102429.63;;;14.41;56.73
15314;BME280;7757;52.626;4.746;2022-12-18T09:03:46;102427.28;;;14.38;56.44
15314;BME280;7757;52.626;4.746;2022-12-18T09:06:13;102439.41;;;14.42;56.60
15314;BME280;7757;52.626;4.746;2022-12-18T09:08:42;102425.63;;;14.37;56.51
15314;BME280;7757;52.626;4.746;2022-12-18T09:11:13;102433.53;;;14.39;56.45
15314;BME280;7757;52.626;4.746;2022-12-18T09:13:41;102447.13;;;14.45;57.04
15314;BME280;7757;52.626;4.746;2022-12-18T09:16:07;102434.53;;;14.38;57.14
15314;BME280;7757;52.626;4.746;2022-12-18T09:18:35;102438.91;;;14.39;56.94
15314;BME280;7757;52.626;4.746;2022-12-18T09:21:08;102419.91;;;14.40;56.23
15314;BME280;7757;52.626;4.746;2022-12-18T09:23:35;102413.69;;;14.40;55.94
15314;BME280;7757;52.626;4.746;2022-12-18T09:26:03;102399.22;;;14.33;57.16
15314;BME280;7757;52.626;4.746;2022-12-18T09:28:30;102412.63;;;14.41;56.38
15314;BME280;7757;52.626;4.746;2022-12-18T09:30:57;102412.16;;;14.37;57.39
15314;BME280;7757;52.626;4.746;2022-12-18T09:33:24;102402.75;;;14.33;57.33
15314;BME280;7757;52.626;4.746;2022-12-18T09:35:51;102397.53;;;14.40;57.28
15314;BME280;7757;52.626;4.746;2022-12-18T09:38:18;102390.44;;;14.39;56.55
15314;BME280;7757;52.626;4.746;2022-12-18T09:40:48;102390.78;;;14.36;56.82
15314;BME280;7757;52.626;4.746;2022-12-18T09:43:18;102391.63;;;14.36;56.51
15314;BME280;7757;52.626;4.746;2022-12-18T09:45:47;102384.41;;;14.37;57.29
15314;BME280;7757;52.626;4.746;2022-12-18T09:48:20;102381.88;;;14.35;57.14
15314;BME280;7757;52.626;4.746;2022-12-18T09:50:50;102380.03;;;14.36;57.44
15314;BME280;7757;52.626;4.746;2022-12-18T09:53:21;102379.03;;;14.37;57.03
15314;BME280;7757;52.626;4.746;2022-12-18T09:55:51;102386.25;;;14.36;56.38
15314;BME280;7757;52.626;4.746;2022-12-18T09:58:26;102378.19;;;14.36;56.90
15314;BME280;7757;52.626;4.746;2022-12-18T10:00:55;102382.06;;;14.34;56.75
15314;BME280;7757;52.626;4.746;2022-12-18T10:03:22;102376.34;;;14.29;57.07
15314;BME280;7757;52.626;4.746;2022-12-18T10:05:56;102384.03;;;14.32;57.24
15314;BME280;7757;52.626;4.746;2022-12-18T10:08:33;102388.59;;;14.31;56.67
15314;BME280;7757;52.626;4.746;2022-12-18T10:11:22;102387.91;;;14.29;57.47
15314;BME280;7757;52.626;4.746;2022-12-18T10:13:57;102382.72;;;14.28;57.68
15314;BME280;7757;52.626;4.746;2022-12-18T10:16:33;102377.34;;;14.28;57.52
15314;BME280;7757;52.626;4.746;2022-12-18T10:19:33;102390.13;;;14.34;57.18
15314;BME280;7757;52.626;4.746;2022-12-18T10:22:07;102376.69;;;14.34;56.66
15314;BME280;7757;52.626;4.746;2022-12-18T10:24:43;102383.38;;;14.30;57.28
15314;BME280;7757;52.626;4.746;2022-12-18T10:27:15;102380.03;;;14.28;57.78
15314;BME280;7757;52.626;4.746;2022-12-18T10:29:44;102388.28;;;14.34;57.31
15314;BME280;7757;52.626;4.746;2022-12-18T10:32:14;102381.03;;;14.27;56.92
15314;BME280;7757;52.626;4.746;2022-12-18T10:34:45;102385.59;;;14.34;57.35
15314;BME280;7757;52.626;4.746;2022-12-18T10:37:16;102381.34;;;14.32;56.66
15314;BME280;7757;52.626;4.746;2022-12-18T10:39:44;102369.25;;;14.28;57.37
15314;BME280;7757;52.626;4.746;2022-12-18T10:42:16;102357.00;;;14.25;57.18
15314;BME280;7757;52.626;4.746;2022-12-18T10:44:46;102362.53;;;14.24;56.33
15314;BME280;7757;52.626;4.746;2022-12-18T10:47:27;102347.91;;;14.34;56.75
15314;BME280;7757;52.626;4.746;2022-12-18T10:49:53;102330.75;;;14.27;57.34
15314;BME280;7757;52.626;4.746;2022-12-18T10:52:23;102332.22;;;14.38;56.51
15314;BME280;7757;52.626;4.746;2022-12-18T10:54:52;102343.69;;;14.40;56.07
15314;BME280;7757;52.626;4.746;2022-12-18T10:57:31;102328.41;;;14.32;56.87
15314;BME280;7757;52.626;4.746;2022-12-18T11:00:20;102316.28;;;14.36;56.00
15314;BME280;7757;52.626;4.746;2022-12-18T11:02:48;102318.47;;;14.33;56.56
15314;BME280;7757;52.626;4.746;2022-12-18T11:05:24;102324.31;;;14.44;57.00
15314;BME280;7757;52.626;4.746;2022-12-18T11:07:52;102322.66;;;14.35;56.83
15314;BME280;7757;52.626;4.746;2022-12-18T11:10:28;102307.19;;;14.29;56.91
15314;BME280;7757;52.626;4.746;2022-12-18T11:12:55;102309.41;;;14.34;57.05
15314;BME280;7757;52.626;4.746;2022-12-18T11:15:27;102314.44;;;14.29;57.12
15314;BME280;7757;52.626;4.746;2022-12-18T11:17:56;102321.81;;;14.27;57.53
15314;BME280;7757;52.626;4.746;2022-12-18T11:20:30;102320.31;;;14.32;56.76
15314;BME280;7757;52.626;4.746;2022-12-18T11:22:59;102320.66;;;14.37;57.64
15314;BME280;7757;52.626;4.746;2022-12-18T11:25:27;102319.31;;;14.33;57.13
15314;BME280;7757;52.626;4.746;2022-12-18T11:27:55;102323.69;;;14.34;58.11
15314;BME280;7757;52.626;4.746;2022-12-18T11:30:28;102304.84;;;14.34;56.79
15314;BME280;7757;52.626;4.746;2022-12-18T11:33:03;102297.09;;;14.31;57.81
15314;BME280;7757;52.626;4.746;2022-12-18T11:35:38;102288.03;;;14.32;57.71
15314;BME280;7757;52.626;4.746;2022-12-18T11:38:13;102288.03;;;14.32;57.29
15314;BME280;7757;52.626;4.746;2022-12-18T11:40:44;102299.09;;;14.29;57.52
15314;BME280;7757;52.626;4.746;2022-12-18T11:43:17;102299.13;;;14.37;56.66
15314;BME280;7757;52.626;4.746;2022-12-18T11:45:50;102284.16;;;14.27;57.50
15314;BME280;7757;52.626;4.746;2022-12-18T11:48:22;102283.31;;;14.34;57.06
15314;BME280;7757;52.626;4.746;2022-12-18T11:50:51;102280.63;;;14.34;57.91
15314;BME280;7757;52.626;4.746;2022-12-18T11:53:19;102272.38;;;14.36;57.80
15314;BME280;7757;52.626;4.746;2022-12-18T11:55:59;102267.81;;;14.36;57.75
15314;BME280;7757;52.626;4.746;2022-12-18T11:58:44;102250.47;;;14.39;57.95
15314;BME280;7757;52.626;4.746;2022-12-18T12:01:33;102241.59;;;14.30;57.20
15314;BME280;7757;52.626;4.746;2022-12-18T12:04:35;102238.72;;;14.40;57.75
15314;BME280;7757;52.626;4.746;2022-12-18T12:07:21;102232.34;;;14.33;57.77
15314;BME280;7757;52.626;4.746;2022-12-18T12:09:56;102218.56;;;14.28;57.24
15314;BME280;7757;52.626;4.746;2022-12-18T12:12:35;102231.34;;;14.34;56.94
15314;BME280;7757;52.626;4.746;2022-12-18T12:15:18;102232.19;;;14.34;57.48
15314;BME280;7757;52.626;4.746;2022-12-18T12:17:54;102233.69;;;14.37;57.60
15314;BME280;7757;52.626;4.746;2022-12-18T12:20:24;102236.88;;;14.32;56.80
15314;BME280;7757;52.626;4.746;2022-12-18T12:23:02;102233.69;;;14.29;57.09
15314;BME280;7757;52.626;4.746;2022-12-18T12:25:37;102232.84;;;14.28;56.84
15314;BME280;7757;52.626;4.746;2022-12-18T12:28:15;102223.94;;;14.28;57.11
15314;BME280;7757;52.626;4.746;2022-12-18T12:30:53;102225.63;;;14.29;57.07
15314;BME280;7757;52.626;4.746;2022-12-18T12:33:34;102217.56;;;14.21;57.45
15314;BME280;7757;52.626;4.746;2022-12-18T12:36:12;102226.78;;;14.26;57.39
15314;BME280;7757;52.626;4.746;2022-12-18T12:38:47;102217.72;;;14.27;56.08
15314;BME280;7757;52.626;4.746;2022-12-18T12:41:18;102214.66;;;14.30;56.20
15314;BME280;7757;52.626;4.746;2022-12-18T12:44:07;102203.72;;;14.32;55.96
15314;BME280;7757;52.626;4.746;2022-12-18T12:46:38;102188.31;;;14.26;56.52
15314;BME280;7757;52.626;4.746;2022-12-18T12:49:12;102181.25;;;14.25;56.00
15314;BME280;7757;52.626;4.746;2022-12-18T12:51:42;102175.84;;;14.25;56.32
15314;BME280;7757;52.626;4.746;2022-12-18T12:54:15;102171.97;;;14.27;56.41
15314;BME280;7757;52.626;4.746;2022-12-18T12:56:48;102169.47;;;14.26;56.35
15314;BME280;7757;52.626;4.746;2022-12-18T12:59:23;102166.03;;;14.40;55.49
15314;BME280;7757;52.626;4.746;2022-12-18T13:01:58;102162.88;;;14.36;56.50
15314;BME280;7757;52.626;4.746;2022-12-18T13:04:31;102154.31;;;14.33;55.53
15314;BME280;7757;52.626;4.746;2022-12-18T13:07:04;102155.78;;;14.35;55.40
15314;BME280;7757;52.626;4.746;2022-12-18T13:09:33;102154.13;;;14.34;55.70
15314;BME280;7757;52.626;4.746;2022-12-18T13:12:03;102150.59;;;14.34;55.69
15314;BME280;7757;52.626;4.746;2022-12-18T13:14:47;102152.78;;;14.30;55.68
15314;BME280;7757;52.626;4.746;2022-12-18T13:17:29;102154.31;;;14.33;55.42